首页
METAR-TAF:

METAR-TAF

机场 :

卢森堡-芬德尔国际机场

卢森堡, 卢森堡

纬度: 49-37N, 经度: 006-13E, 海拔: 376米

当前天气观测

该预报发布于24分钟前的17:20 UTC
风速3节,风向多变
温度 -1°C
湿度 100%
气压 1022 hPa
能見度: 0100
冻雾

METAR: ELLX 241720Z VRB03KT 0100 R24/0400N FZFG VV002 M01/M01 Q1022 NOSIG

时间: 18:44 (17:44 UTC)

预报

该预报发布于44分钟前的17:00 UTC
预报有效从24日的 18点(UTC)到 25日的 24点(UTC)
风速5节,风向
能見度: 0100
层低于100英尺
冻雾
几率 40% :
短暂存在
从 25日的 08点(UTC)到 25日的 18点(UTC)
能見度: 1500
多云层高于300英尺
轻雾

TAF: ELLX 241700Z 2418/2524 18005KT 0100 FZFG VV000 PROB40 TEMPO 2508/2518 1500 BR BKN003

超过4000个机场的气象观测和天气预报(METAR&TAF报告)。

可查询的气象台以黄色和红色小点在地图上表示。

将鼠标移到小点上方,可查看气象台名称。

然后点击查看天气观测和预报。

如需切换地图:点击带黑十字的绿色按钮放大地图;点击带横线的绿色按钮缩小地图;或者点击绿色箭头查看邻近地区的地图。


METAR-TAF: